sensor_id;sensor_type;location;lat;lon;timestamp;pressure;altitude;pressure_sealevel;temperature;humidity
46448;BME280;32145;50.390;30.778;2023-11-19T00:02:48;100585.25;;;-1.30;67.64
46448;BME280;32145;50.390;30.778;2023-11-19T00:05:43;100578.25;;;-1.31;67.97
46448;BME280;32145;50.390;30.778;2023-11-19T00:08:37;100579.94;;;-1.30;67.57
46448;BME280;32145;50.390;30.778;2023-11-19T00:11:31;100578.25;;;-1.31;67.68
46448;BME280;32145;50.390;30.778;2023-11-19T00:14:27;100582.88;;;-1.33;67.71
46448;BME280;32145;50.390;30.778;2023-11-19T00:17:22;100580.47;;;-1.36;67.76
46448;BME280;32145;50.390;30.778;2023-11-19T00:20:17;100588.59;;;-1.38;67.81
46448;BME280;32145;50.390;30.778;2023-11-19T00:23:12;100592.78;;;-1.35;67.80
46448;BME280;32145;50.390;30.778;2023-11-19T00:26:08;100581.19;;;-1.34;67.49
46448;BME280;32145;50.390;30.778;2023-11-19T00:29:05;100585.53;;;-1.33;67.76
46448;BME280;32145;50.390;30.778;2023-11-19T00:32:00;100580.22;;;-1.33;67.92
46448;BME280;32145;50.390;30.778;2023-11-19T00:34:54;100575.88;;;-1.34;68.13
46448;BME280;32145;50.390;30.778;2023-11-19T00:37:49;100573.22;;;-1.34;67.82
46448;BME280;32145;50.390;30.778;2023-11-19T00:40:43;100583.59;;;-1.31;68.26
46448;BME280;32145;50.390;30.778;2023-11-19T00:43:38;100582.16;;;-1.35;68.37
46448;BME280;32145;50.390;30.778;2023-11-19T00:46:32;100578.53;;;-1.34;68.63
46448;BME280;32145;50.390;30.778;2023-11-19T00:49:28;100573.75;;;-1.31;68.38
46448;BME280;32145;50.390;30.778;2023-11-19T00:52:22;100579.09;;;-1.31;68.51
46448;BME280;32145;50.390;30.778;2023-11-19T00:55:18;100571.94;;;-1.30;68.10
46448;BME280;32145;50.390;30.778;2023-11-19T00:58:14;100572.09;;;-1.32;68.31
46448;BME280;32145;50.390;30.778;2023-11-19T01:01:09;100572.94;;;-1.31;68.18
46448;BME280;32145;50.390;30.778;2023-11-19T01:04:03;100567.88;;;-1.34;68.13
46448;BME280;32145;50.390;30.778;2023-11-19T01:06:59;100570.56;;;-1.34;68.14
46448;BME280;32145;50.390;30.778;2023-11-19T01:09:53;100564.25;;;-1.33;67.89
46448;BME280;32145;50.390;30.778;2023-11-19T01:12:49;100562.84;;;-1.37;68.33
46448;BME280;32145;50.390;30.778;2023-11-19T01:15:46;100559.19;;;-1.36;67.95
46448;BME280;32145;50.390;30.778;2023-11-19T01:18:40;100546.88;;;-1.37;68.13
46448;BME280;32145;50.390;30.778;2023-11-19T01:21:34;100556.25;;;-1.33;68.22
46448;BME280;32145;50.390;30.778;2023-11-19T01:24:30;100556.41;;;-1.35;68.37
46448;BME280;32145;50.390;30.778;2023-11-19T01:27:24;100549.41;;;-1.36;68.61
46448;BME280;32145;50.390;30.778;2023-11-19T01:30:18;100545.22;;;-1.38;68.40
46448;BME280;32145;50.390;30.778;2023-11-19T01:33:12;100540.16;;;-1.41;68.14
46448;BME280;32145;50.390;30.778;2023-11-19T01:36:12;100540.44;;;-1.45;68.55
46448;BME280;32145;50.390;30.778;2023-11-19T01:39:09;100539.75;;;-1.47;67.90
46448;BME280;32145;50.390;30.778;2023-11-19T01:42:07;100536.38;;;-1.49;68.34
46448;BME280;32145;50.390;30.778;2023-11-19T01:45:01;100528.38;;;-1.49;68.13
46448;BME280;32145;50.390;30.778;2023-11-19T01:47:55;100536.22;;;-1.47;68.71
46448;BME280;32145;50.390;30.778;2023-11-19T01:50:50;100535.09;;;-1.45;68.11
46448;BME280;32145;50.390;30.778;2023-11-19T01:53:45;100535.38;;;-1.48;68.39
46448;BME280;32145;50.390;30.778;2023-11-19T01:56:40;100532.03;;;-1.50;68.05
46448;BME280;32145;50.390;30.778;2023-11-19T01:59:36;100532.16;;;-1.51;68.24
46448;BME280;32145;50.390;30.778;2023-11-19T02:02:31;100529.38;;;-1.50;68.64
46448;BME280;32145;50.390;30.778;2023-11-19T02:05:25;100536.63;;;-1.52;68.22
46448;BME280;32145;50.390;30.778;2023-11-19T02:08:19;100530.34;;;-1.51;68.21
46448;BME280;32145;50.390;30.778;2023-11-19T02:11:14;100521.66;;;-1.53;68.11
46448;BME280;32145;50.390;30.778;2023-11-19T02:14:10;100513.69;;;-1.53;68.51
46448;BME280;32145;50.390;30.778;2023-11-19T02:17:25;100517.19;;;-1.52;68.09
46448;BME280;32145;50.390;30.778;2023-11-19T02:20:21;100527.53;;;-1.59;68.16
46448;BME280;32145;50.390;30.778;2023-11-19T02:23:19;100536.34;;;-1.59;67.97
46448;BME280;32145;50.390;30.778;2023-11-19T02:26:23;100528.38;;;-1.59;68.30
46448;BME280;32145;50.390;30.778;2023-11-19T02:29:23;100523.06;;;-1.59;68.08
46448;BME280;32145;50.390;30.778;2023-11-19T02:32:17;100530.19;;;-1.59;68.17
46448;BME280;32145;50.390;30.778;2023-11-19T02:35:11;100531.03;;;-1.59;68.39
46448;BME280;32145;50.390;30.778;2023-11-19T02:38:06;100534.41;;;-1.57;68.63
46448;BME280;32145;50.390;30.778;2023-11-19T02:41:02;100526.13;;;-1.53;68.72
46448;BME280;32145;50.390;30.778;2023-11-19T02:43:57;100526.56;;;-1.58;69.08
46448;BME280;32145;50.390;30.778;2023-11-19T02:46:52;100522.19;;;-1.59;68.37
46448;BME280;32145;50.390;30.778;2023-11-19T02:49:47;100524.88;;;-1.59;68.91
46448;BME280;32145;50.390;30.778;2023-11-19T02:52:41;100520.53;;;-1.60;68.67
46448;BME280;32145;50.390;30.778;2023-11-19T02:55:35;100519.72;;;-1.61;68.77
46448;BME280;32145;50.390;30.778;2023-11-19T02:58:29;100509.91;;;-1.60;68.51
46448;BME280;32145;50.390;30.778;2023-11-19T03:01:24;100499.53;;;-1.63;68.98
46448;BME280;32145;50.390;30.778;2023-11-19T03:04:22;100496.88;;;-1.63;68.76
46448;BME280;32145;50.390;30.778;2023-11-19T03:07:18;100489.59;;;-1.61;68.66
46448;BME280;32145;50.390;30.778;2023-11-19T03:10:14;100479.97;;;-1.62;68.99
46448;BME280;32145;50.390;30.778;2023-11-19T03:13:11;100476.31;;;-1.61;68.62
46448;BME280;32145;50.390;30.778;2023-11-19T03:16:08;100471.00;;;-1.61;68.88
46448;BME280;32145;50.390;30.778;2023-11-19T03:19:04;100469.88;;;-1.59;69.20
46448;BME280;32145;50.390;30.778;2023-11-19T03:22:02;100469.03;;;-1.59;69.28
46448;BME280;32145;50.390;30.778;2023-11-19T03:24:59;100470.84;;;-1.60;69.01
46448;BME280;32145;50.390;30.778;2023-11-19T03:27:55;100472.94;;;-1.63;69.19
46448;BME280;32145;50.390;30.778;2023-11-19T03:30:51;100471.13;;;-1.63;69.30
46448;BME280;32145;50.390;30.778;2023-11-19T03:33:47;100478.97;;;-1.61;69.38
46448;BME280;32145;50.390;30.778;2023-11-19T03:36:43;100481.63;;;-1.61;69.23
46448;BME280;32145;50.390;30.778;2023-11-19T03:39:41;100474.63;;;-1.62;68.95
46448;BME280;32145;50.390;30.778;2023-11-19T03:42:37;100469.31;;;-1.62;68.95
46448;BME280;32145;50.390;30.778;2023-11-19T03:45:34;100470.13;;;-1.62;69.04
46448;BME280;32145;50.390;30.778;2023-11-19T03:48:30;100475.59;;;-1.63;69.25
46448;BME280;32145;50.390;30.778;2023-11-19T03:51:26;100470.28;;;-1.63;68.79
46448;BME280;32145;50.390;30.778;2023-11-19T03:54:21;100462.31;;;-1.63;68.83
46448;BME280;32145;50.390;30.778;2023-11-19T03:57:16;100459.50;;;-1.62;69.14
46448;BME280;32145;50.390;30.778;2023-11-19T04:00:11;100464.00;;;-1.62;69.21
46448;BME280;32145;50.390;30.778;2023-11-19T04:03:07;100464.28;;;-1.65;69.54
46448;BME280;32145;50.390;30.778;2023-11-19T04:06:04;100454.63;;;-1.66;69.33
46448;BME280;32145;50.390;30.778;2023-11-19T04:09:00;100454.63;;;-1.66;69.43
46448;BME280;32145;50.390;30.778;2023-11-19T04:11:57;100451.97;;;-1.66;69.22
46448;BME280;32145;50.390;30.778;2023-11-19T04:14:54;100443.00;;;-1.65;69.71
46448;BME280;32145;50.390;30.778;2023-11-19T04:17:50;100429.00;;;-1.67;69.61
46448;BME280;32145;50.390;30.778;2023-11-19T04:20:47;100432.63;;;-1.69;69.38
46448;BME280;32145;50.390;30.778;2023-11-19T04:23:41;100429.28;;;-1.71;69.46
46448;BME280;32145;50.390;30.778;2023-11-19T04:26:36;100429.28;;;-1.71;69.35
46448;BME280;32145;50.390;30.778;2023-11-19T04:29:33;100418.94;;;-1.74;68.82
46448;BME280;32145;50.390;30.778;2023-11-19T04:32:29;100420.88;;;-1.76;68.71
46448;BME280;32145;50.390;30.778;2023-11-19T04:35:23;100418.09;;;-1.74;69.29
46448;BME280;32145;50.390;30.778;2023-11-19T04:38:17;100429.56;;;-1.74;68.74
46448;BME280;32145;50.390;30.778;2023-11-19T04:41:12;100431.38;;;-1.74;69.21
46448;BME280;32145;50.390;30.778;2023-11-19T04:44:06;100433.22;;;-1.75;68.67
46448;BME280;32145;50.390;30.778;2023-11-19T04:47:00;100439.34;;;-1.74;68.88
46448;BME280;32145;50.390;30.778;2023-11-19T04:49:56;100442.28;;;-1.77;68.76
46448;BME280;32145;50.390;30.778;2023-11-19T04:52:52;100448.59;;;-1.78;68.58
46448;BME280;32145;50.390;30.778;2023-11-19T04:55:49;100437.09;;;-1.79;68.16
46448;BME280;32145;50.390;30.778;2023-11-19T04:58:45;100441.47;;;-1.78;68.59
46448;BME280;32145;50.390;30.778;2023-11-19T05:01:46;100443.97;;;-1.76;68.11
46448;BME280;32145;50.390;30.778;2023-11-19T05:04:42;100441.31;;;-1.76;68.21
46448;BME280;32145;50.390;30.778;2023-11-19T05:07:40;100442.00;;;-1.74;67.93
46448;BME280;32145;50.390;30.778;2023-11-19T05:10:36;100443.28;;;-1.78;68.15
46448;BME280;32145;50.390;30.778;2023-11-19T05:13:33;100444.13;;;-1.78;67.21
46448;BME280;32145;50.390;30.778;2023-11-19T05:16:29;100442.28;;;-1.77;67.42
46448;BME280;32145;50.390;30.778;2023-11-19T05:19:26;100436.81;;;-1.76;67.29
46448;BME280;32145;50.390;30.778;2023-11-19T05:22:22;100428.16;;;-1.78;66.40
46448;BME280;32145;50.390;30.778;2023-11-19T05:25:19;100428.16;;;-1.78;66.76
46448;BME280;32145;50.390;30.778;2023-11-19T05:28:16;100432.09;;;-1.82;65.97
46448;BME280;32145;50.390;30.778;2023-11-19T05:31:12;100433.75;;;-1.81;66.13
46448;BME280;32145;50.390;30.778;2023-11-19T05:34:08;100428.44;;;-1.81;66.67
46448;BME280;32145;50.390;30.778;2023-11-19T05:37:05;100429.28;;;-1.80;66.35
46448;BME280;32145;50.390;30.778;2023-11-19T05:40:01;100435.69;;;-1.83;66.28
46448;BME280;32145;50.390;30.778;2023-11-19T05:42:58;100434.03;;;-1.84;65.95
46448;BME280;32145;50.390;30.778;2023-11-19T05:45:54;100426.78;;;-1.82;66.00
46448;BME280;32145;50.390;30.778;2023-11-19T05:48:51;100423.97;;;-1.80;65.97
46448;BME280;32145;50.390;30.778;2023-11-19T05:51:47;100428.16;;;-1.78;65.86
46448;BME280;32145;50.390;30.778;2023-11-19T05:54:42;100431.50;;;-1.76;65.98
46448;BME280;32145;50.390;30.778;2023-11-19T05:57:36;100438.22;;;-1.72;66.93
46448;BME280;32145;50.390;30.778;2023-11-19T06:00:32;100434.88;;;-1.74;65.63
46448;BME280;32145;50.390;30.778;2023-11-19T06:03:26;100423.69;;;-1.77;65.53
46448;BME280;32145;50.390;30.778;2023-11-19T06:06:22;100426.19;;;-1.76;65.83
46448;BME280;32145;50.390;30.778;2023-11-19T06:09:18;100413.63;;;-1.74;65.35
46448;BME280;32145;50.390;30.778;2023-11-19T06:12:15;100410.97;;;-1.74;65.19
46448;BME280;32145;50.390;30.778;2023-11-19T06:15:11;100413.63;;;-1.74;66.25
46448;BME280;32145;50.390;30.778;2023-11-19T06:18:08;100415.28;;;-1.73;65.34
46448;BME280;32145;50.390;30.778;2023-11-19T06:21:05;100423.00;;;-1.70;65.95
46448;BME280;32145;50.390;30.778;2023-11-19T06:24:01;100411.38;;;-1.69;65.13
46448;BME280;32145;50.390;30.778;2023-11-19T06:26:58;100404.38;;;-1.70;65.66
46448;BME280;32145;50.390;30.778;2023-11-19T06:29:52;100401.44;;;-1.66;65.29
46448;BME280;32145;50.390;30.778;2023-11-19T06:32:46;100400.47;;;-1.65;65.18
46448;BME280;32145;50.390;30.778;2023-11-19T06:35:44;100395.69;;;-1.72;64.75
46448;BME280;32145;50.390;30.778;2023-11-19T06:38:40;100377.09;;;-1.72;64.01
46448;BME280;32145;50.390;30.778;2023-11-19T06:41:37;100377.78;;;-1.70;64.19
46448;BME280;32145;50.390;30.778;2023-11-19T06:44:33;100373.03;;;-1.66;64.68
46448;BME280;32145;50.390;30.778;2023-11-19T06:47:29;100375.00;;;-1.68;63.66
46448;BME280;32145;50.390;30.778;2023-11-19T06:50:26;100373.16;;;-1.67;63.58
46448;BME280;32145;50.390;30.778;2023-11-19T06:53:23;100376.94;;;-1.60;62.98
46448;BME280;32145;50.390;30.778;2023-11-19T06:56:20;100376.53;;;-1.56;63.16
46448;BME280;32145;50.390;30.778;2023-11-19T06:59:17;100367.16;;;-1.50;64.00
46448;BME280;32145;50.390;30.778;2023-11-19T07:02:13;100366.00;;;-1.47;63.27
46448;BME280;32145;50.390;30.778;2023-11-19T07:05:10;100374.84;;;-1.47;63.14
46448;BME280;32145;50.390;30.778;2023-11-19T07:08:06;100372.59;;;-1.41;63.04
46448;BME280;32145;50.390;30.778;2023-11-19T07:11:04;100368.94;;;-1.40;62.71
46448;BME280;32145;50.390;30.778;2023-11-19T07:14:00;100366.53;;;-1.34;63.04
46448;BME280;32145;50.390;30.778;2023-11-19T07:16:45;100365.44;;;-1.31;62.38
46448;BME280;32145;50.390;30.778;2023-11-19T07:19:29;100368.09;;;-1.31;62.79
46448;BME280;32145;50.390;30.778;2023-11-19T07:22:13;100373.09;;;-1.28;63.25
46448;BME280;32145;50.390;30.778;2023-11-19T07:25:08;100377.19;;;-1.34;63.16
46448;BME280;32145;50.390;30.778;2023-11-19T07:28:04;100377.75;;;-1.30;62.70
46448;BME280;32145;50.390;30.778;2023-11-19T07:31:00;100370.31;;;-1.26;62.54
46448;BME280;32145;50.390;30.778;2023-11-19T07:33:52;100379.00;;;-1.24;62.76
46448;BME280;32145;50.390;30.778;2023-11-19T07:36:46;100369.59;;;-1.19;62.58
46448;BME280;32145;50.390;30.778;2023-11-19T07:39:30;100358.38;;;-1.12;62.54
46448;BME280;32145;50.390;30.778;2023-11-19T07:42:14;100355.56;;;-1.11;61.81
46448;BME280;32145;50.390;30.778;2023-11-19T07:45:06;100349.09;;;-1.08;62.91
46448;BME280;32145;50.390;30.778;2023-11-19T07:48:01;100347.72;;;-1.12;62.47
46448;BME280;32145;50.390;30.778;2023-11-19T07:50:55;100351.91;;;-1.10;62.29
46448;BME280;32145;50.390;30.778;2023-11-19T07:53:39;100357.50;;;-1.03;62.11
46448;BME280;32145;50.390;30.778;2023-11-19T07:56:35;100351.75;;;-1.08;61.60
46448;BME280;32145;50.390;30.778;2023-11-19T07:59:31;100351.63;;;-1.07;62.40
46448;BME280;32145;50.390;30.778;2023-11-19T08:02:17;100355.81;;;-1.04;62.33
46448;BME280;32145;50.390;30.778;2023-11-19T08:05:11;100365.75;;;-0.96;62.33
46448;BME280;32145;50.390;30.778;2023-11-19T08:08:05;100361.56;;;-0.99;62.02
46448;BME280;32145;50.390;30.778;2023-11-19T08:10:49;100356.91;;;-0.97;61.85
46448;BME280;32145;50.390;30.778;2023-11-19T08:13:45;100351.88;;;-1.00;61.50
46448;BME280;32145;50.390;30.778;2023-11-19T08:16:36;100350.78;;;-0.97;61.93
46448;BME280;32145;50.390;30.778;2023-11-19T08:19:32;100344.84;;;-0.91;61.65
46448;BME280;32145;50.390;30.778;2023-11-19T08:22:16;100339.53;;;-0.91;61.66
46448;BME280;32145;50.390;30.778;2023-11-19T08:25:07;100343.72;;;-0.88;61.76
46448;BME280;32145;50.390;30.778;2023-11-19T08:28:01;100330.25;;;-0.87;61.40
46448;BME280;32145;50.390;30.778;2023-11-19T08:30:46;100321.13;;;-0.84;61.39
46448;BME280;32145;50.390;30.778;2023-11-19T08:33:30;100325.50;;;-0.83;61.73
46448;BME280;32145;50.390;30.778;2023-11-19T08:36:19;100322.06;;;-0.75;61.30
46448;BME280;32145;50.390;30.778;2023-11-19T08:39:03;100318.41;;;-0.74;61.08
46448;BME280;32145;50.390;30.778;2023-11-19T08:41:57;100320.66;;;-0.70;61.32
46448;BME280;32145;50.390;30.778;2023-11-19T08:44:55;100309.56;;;-0.65;60.70
46448;BME280;32145;50.390;30.778;2023-11-19T08:47:51;100301.81;;;-0.58;60.79
46448;BME280;32145;50.390;30.778;2023-11-19T08:50:49;100304.31;;;-0.57;60.49
46448;BME280;32145;50.390;30.778;2023-11-19T08:53:48;100300.13;;;-0.59;60.22
46448;BME280;32145;50.390;30.778;2023-11-19T08:56:45;100301.25;;;-0.62;60.10
46448;BME280;32145;50.390;30.778;2023-11-19T08:59:33;100301.84;;;-0.68;60.27
46448;BME280;32145;50.390;30.778;2023-11-19T09:02:28;100292.34;;;-0.71;60.23
46448;BME280;32145;50.390;30.778;2023-11-19T09:05:22;100288.53;;;-0.68;60.34
46448;BME280;32145;50.390;30.778;2023-11-19T09:08:19;100290.59;;;-0.62;60.94
46448;BME280;32145;50.390;30.778;2023-11-19T09:11:08;100295.09;;;-0.62;60.95
46448;BME280;32145;50.390;30.778;2023-11-19T09:13:52;100293.03;;;-0.69;60.48
46448;BME280;32145;50.390;30.778;2023-11-19T09:16:36;100282.78;;;-0.63;61.61
46448;BME280;32145;50.390;30.778;2023-11-19T09:19:32;100282.44;;;-0.60;61.21
46448;BME280;32145;50.390;30.778;2023-11-19T09:22:28;100271.06;;;-0.53;61.36
46448;BME280;32145;50.390;30.778;2023-11-19T09:25:12;100257.75;;;-0.53;60.75
46448;BME280;32145;50.390;30.778;2023-11-19T09:27:58;100262.53;;;-0.56;60.65
46448;BME280;32145;50.390;30.778;2023-11-19T09:30:43;100259.84;;;-0.56;60.72
46448;BME280;32145;50.390;30.778;2023-11-19T09:33:27;100262.38;;;-0.55;60.64
46448;BME280;32145;50.390;30.778;2023-11-19T09:36:12;100262.53;;;-0.56;60.40
46448;BME280;32145;50.390;30.778;2023-11-19T09:38:56;100268.25;;;-0.51;60.30
46448;BME280;32145;50.390;30.778;2023-11-19T09:41:51;100274.94;;;-0.47;60.84
46448;BME280;32145;50.390;30.778;2023-11-19T09:44:37;100265.59;;;-0.51;60.23
46448;BME280;32145;50.390;30.778;2023-11-19T09:47:22;100268.94;;;-0.49;60.34
46448;BME280;32145;50.390;30.778;2023-11-19T09:50:07;100275.84;;;-0.38;61.27
46448;BME280;32145;50.390;30.778;2023-11-19T09:52:52;100289.34;;;-0.40;60.99
46448;BME280;32145;50.390;30.778;2023-11-19T09:55:48;100275.84;;;-0.38;60.64
46448;BME280;32145;50.390;30.778;2023-11-19T09:58:33;100275.56;;;-0.35;60.45
46448;BME280;32145;50.390;30.778;2023-11-19T10:01:18;100266.75;;;-0.35;60.51
46448;BME280;32145;50.390;30.778;2023-11-19T10:04:09;100264.66;;;-0.42;60.82
46448;BME280;32145;50.390;30.778;2023-11-19T10:07:06;100259.41;;;-0.52;60.40
46448;BME280;32145;50.390;30.778;2023-11-19T10:10:03;100266.41;;;-0.50;61.57
46448;BME280;32145;50.390;30.778;2023-11-19T10:12:59;100264.75;;;-0.52;61.75
46448;BME280;32145;50.390;30.778;2023-11-19T10:15:44;100278.91;;;-0.51;61.44
46448;BME280;32145;50.390;30.778;2023-11-19T10:18:30;100278.50;;;-0.56;61.34
46448;BME280;32145;50.390;30.778;2023-11-19T10:21:26;100270.97;;;-0.61;60.94
46448;BME280;32145;50.390;30.778;2023-11-19T10:24:31;100267.09;;;-0.67;60.78
46448;BME280;32145;50.390;30.778;2023-11-19T10:27:27;100263.88;;;-0.70;61.53
46448;BME280;32145;50.390;30.778;2023-11-19T10:30:24;100267.69;;;-0.73;60.93
46448;BME280;32145;50.390;30.778;2023-11-19T10:33:09;100264.56;;;-0.68;61.72
46448;BME280;32145;50.390;30.778;2023-11-19T10:36:07;100253.06;;;-0.69;61.32
46448;BME280;32145;50.390;30.778;2023-11-19T10:39:01;100249.41;;;-0.68;60.58
46448;BME280;32145;50.390;30.778;2023-11-19T10:41:55;100245.78;;;-0.67;60.62
46448;BME280;32145;50.390;30.778;2023-11-19T10:44:39;100249.41;;;-0.68;60.82
46448;BME280;32145;50.390;30.778;2023-11-19T10:47:34;100243.94;;;-0.66;60.44
46448;BME280;32145;50.390;30.778;2023-11-19T10:50:20;100233.44;;;-0.68;60.59
46448;BME280;32145;50.390;30.778;2023-11-19T10:53:07;100232.06;;;-0.72;60.32
46448;BME280;32145;50.390;30.778;2023-11-19T10:55:53;100229.19;;;-0.79;60.61
46448;BME280;32145;50.390;30.778;2023-11-19T10:58:44;100228.75;;;-0.74;60.46
46448;BME280;32145;50.390;30.778;2023-11-19T11:01:43;100242.44;;;-0.69;61.34
46448;BME280;32145;50.390;30.778;2023-11-19T11:04:40;100220.03;;;-0.76;61.27
46448;BME280;32145;50.390;30.778;2023-11-19T11:07:34;100226.91;;;-0.73;61.16
46448;BME280;32145;50.390;30.778;2023-11-19T11:10:23;100209.41;;;-0.76;61.02
46448;BME280;32145;50.390;30.778;2023-11-19T11:13:23;100206.34;;;-0.81;60.79
46448;BME280;32145;50.390;30.778;2023-11-19T11:16:08;100202.19;;;-0.84;60.50
46448;BME280;32145;50.390;30.778;2023-11-19T11:19:02;100199.06;;;-0.79;61.13
46448;BME280;32145;50.390;30.778;2023-11-19T11:21:50;100200.28;;;-0.73;60.69
46448;BME280;32145;50.390;30.778;2023-11-19T11:25:05;100205.78;;;-0.75;60.00
46448;BME280;32145;50.390;30.778;2023-11-19T11:28:13;100196.78;;;-0.74;60.20
46448;BME280;32145;50.390;30.778;2023-11-19T11:31:23;100190.59;;;-0.74;59.93
46448;BME280;32145;50.390;30.778;2023-11-19T11:34:18;100193.19;;;-0.65;60.84
46448;BME280;32145;50.390;30.778;2023-11-19T11:37:12;100188.72;;;-0.64;61.06
46448;BME280;32145;50.390;30.778;2023-11-19T11:40:14;100190.84;;;-0.68;60.97
46448;BME280;32145;50.390;30.778;2023-11-19T11:46:55;100179.16;;;-0.75;60.78
46448;BME280;32145;50.390;30.778;2023-11-19T11:49:39;100172.03;;;-0.84;60.74
46448;BME280;32145;50.390;30.778;2023-11-19T11:52:34;100172.75;;;-0.82;60.81
46448;BME280;32145;50.390;30.778;2023-11-19T11:55:18;100165.44;;;-0.80;61.25
46448;BME280;32145;50.390;30.778;2023-11-19T11:58:12;100165.44;;;-0.80;61.16
46448;BME280;32145;50.390;30.778;2023-11-19T12:00:58;100163.47;;;-0.78;60.80
46448;BME280;32145;50.390;30.778;2023-11-19T12:03:50;100170.75;;;-0.80;60.09
46448;BME280;32145;50.390;30.778;2023-11-19T12:06:35;100150.91;;;-0.86;60.12
46448;BME280;32145;50.390;30.778;2023-11-19T12:09:20;100143.09;;;-0.87;59.97
46448;BME280;32145;50.390;30.778;2023-11-19T12:12:19;100153.41;;;-0.84;60.17
46448;BME280;32145;50.390;30.778;2023-11-19T12:15:16;100146.13;;;-0.82;60.78
46448;BME280;32145;50.390;30.778;2023-11-19T12:18:00;100137.13;;;-0.81;60.57
46448;BME280;32145;50.390;30.778;2023-11-19T12:20:46;100136.16;;;-0.80;60.27
46448;BME280;32145;50.390;30.778;2023-11-19T12:23:31;100139.44;;;-0.86;60.88
46448;BME280;32145;50.390;30.778;2023-11-19T12:26:33;100136.38;;;-0.92;60.81
46448;BME280;32145;50.390;30.778;2023-11-19T12:29:17;100135.00;;;-0.96;60.94
46448;BME280;32145;50.390;30.778;2023-11-19T12:32:14;100130.31;;;-1.02;60.96
46448;BME280;32145;50.390;30.778;2023-11-19T12:34:58;100133.56;;;-1.08;61.18
46448;BME280;32145;50.390;30.778;2023-11-19T12:37:54;100130.88;;;-1.08;60.51
46448;BME280;32145;50.390;30.778;2023-11-19T12:40:38;100128.94;;;-1.06;61.05
46448;BME280;32145;50.390;30.778;2023-11-19T12:43:23;100125.56;;;-1.08;60.74
46448;BME280;32145;50.390;30.778;2023-11-19T12:46:18;100124.19;;;-1.12;61.51
46448;BME280;32145;50.390;30.778;2023-11-19T12:49:02;100123.69;;;-1.16;61.19
46448;BME280;32145;50.390;30.778;2023-11-19T12:51:58;100129.28;;;-1.19;60.93
46448;BME280;32145;50.390;30.778;2023-11-19T12:54:56;100128.44;;;-1.20;60.79
46448;BME280;32145;50.390;30.778;2023-11-19T12:57:42;100120.09;;;-1.25;60.81
46448;BME280;32145;50.390;30.778;2023-11-19T13:00:27;100121.22;;;-1.27;61.04
46448;BME280;32145;50.390;30.778;2023-11-19T13:03:29;100114.09;;;-1.27;60.62
46448;BME280;32145;50.390;30.778;2023-11-19T13:06:25;100097.56;;;-1.31;60.49
46448;BME280;32145;50.390;30.778;2023-11-19T13:09:22;100105.41;;;-1.29;61.08
46448;BME280;32145;50.390;30.778;2023-11-19T13:12:20;100098.56;;;-1.32;61.19
46448;BME280;32145;50.390;30.778;2023-11-19T13:15:23;100092.41;;;-1.32;61.00
46448;BME280;32145;50.390;30.778;2023-11-19T13:18:19;100087.38;;;-1.35;60.96
46448;BME280;32145;50.390;30.778;2023-11-19T13:21:03;100086.41;;;-1.34;62.09
46448;BME280;32145;50.390;30.778;2023-11-19T13:23:47;100081.53;;;-1.39;62.43
46448;BME280;32145;50.390;30.778;2023-11-19T13:26:31;100082.81;;;-1.43;62.26
46448;BME280;32145;50.390;30.778;2023-11-19T13:29:27;100085.34;;;-1.41;62.97
46448;BME280;32145;50.390;30.778;2023-11-19T13:32:12;100077.50;;;-1.43;62.19
46448;BME280;32145;50.390;30.778;2023-11-19T13:35:08;100075.97;;;-1.46;63.01
46448;BME280;32145;50.390;30.778;2023-11-19T13:38:05;100072.78;;;-1.49;62.84
46448;BME280;32145;50.390;30.778;2023-11-19T13:40:48;100063.28;;;-1.52;62.93
46448;BME280;32145;50.390;30.778;2023-11-19T13:43:43;100068.22;;;-1.57;63.06
46448;BME280;32145;50.390;30.778;2023-11-19T13:46:28;100061.91;;;-1.56;63.09
46448;BME280;32145;50.390;30.778;2023-11-19T13:49:12;100057.56;;;-1.57;63.38
46448;BME280;32145;50.390;30.778;2023-11-19T13:51:56;100054.91;;;-1.57;63.33
46448;BME280;32145;50.390;30.778;2023-11-19T13:54:53;100048.38;;;-1.63;63.00
46448;BME280;32145;50.390;30.778;2023-11-19T13:57:49;100053.16;;;-1.66;62.75
46448;BME280;32145;50.390;30.778;2023-11-19T14:00:40;100050.94;;;-1.71;62.44
46448;BME280;32145;50.390;30.778;2023-11-19T14:03:25;100050.41;;;-1.75;62.43
46448;BME280;32145;50.390;30.778;2023-11-19T14:06:15;100044.41;;;-1.77;62.60
46448;BME280;32145;50.390;30.778;2023-11-19T14:09:00;100044.53;;;-1.78;62.79
46448;BME280;32145;50.390;30.778;2023-11-19T14:11:44;100051.53;;;-1.77;63.72
46448;BME280;32145;50.390;30.778;2023-11-19T14:14:38;100044.16;;;-1.84;63.30
46448;BME280;32145;50.390;30.778;2023-11-19T14:17:34;100041.50;;;-1.84;63.06
46448;BME280;32145;50.390;30.778;2023-11-19T14:20:31;100035.34;;;-1.84;63.09
46448;BME280;32145;50.390;30.778;2023-11-19T14:23:25;100042.31;;;-1.83;62.90
46448;BME280;32145;50.390;30.778;2023-11-19T14:26:10;100041.78;;;-1.87;63.01
46448;BME280;32145;50.390;30.778;2023-11-19T14:28:54;100042.78;;;-1.88;63.20
46448;BME280;32145;50.390;30.778;2023-11-19T14:31:38;100041.94;;;-1.88;63.43
46448;BME280;32145;50.390;30.778;2023-11-19T14:34:23;100042.78;;;-1.88;63.15
46448;BME280;32145;50.390;30.778;2023-11-19T14:37:08;100047.25;;;-1.88;62.91
46448;BME280;32145;50.390;30.778;2023-11-19T14:39:52;100035.25;;;-1.92;63.30
46448;BME280;32145;50.390;30.778;2023-11-19T14:42:47;100040.41;;;-1.91;63.20
46448;BME280;32145;50.390;30.778;2023-11-19T14:45:41;100024.75;;;-1.94;62.86
46448;BME280;32145;50.390;30.778;2023-11-19T14:48:25;100032.59;;;-1.92;63.48
46448;BME280;32145;50.390;30.778;2023-11-19T14:51:09;100024.25;;;-1.98;63.50
46448;BME280;32145;50.390;30.778;2023-11-19T14:53:55;100025.91;;;-1.97;63.54
46448;BME280;32145;50.390;30.778;2023-11-19T14:56:39;100019.22;;;-2.01;64.10
46448;BME280;32145;50.390;30.778;2023-11-19T14:59:35;100019.22;;;-2.01;63.86